Murphys Corner, Arkansas
Current Conditions -  °F | °C
As of 11:56 PM on Thursday 27 Nov 2014 (Local Time) from KM19 Reporting Station
Clear Clear  
Wind Chill: 29°   Ceiling: Unl
Heat Index: 33°   Visibility: 9mi
Dew Point: 31°   Wind: 5mph
Humidity: 93%   Direction: 130°SE
Pressure: 30.45"   Gusts: NA
Location:  35.5678°N, 91.2073°W
Report Text: KM19 280556Z AUTO 13004KT 9SM CLR 01/M01 A3045 RMK AO2 58007 60000 T00051005 10044 20000 400880000 SLP312
Loading
Personal Weather Stations






























Interactive Weather Map New forecast layout! Learn more

10-Day Weather Forecast

Advertisements
Track Severe Weather on mobile